createdAt,value
2019-05-23T00:00:02.733Z,10.29
2019-05-23T00:02:51.892Z,10.09
2019-05-23T00:05:45.468Z,10.10
2019-05-23T00:08:14.896Z,10.13
2019-05-23T00:10:52.354Z,10.09
2019-05-23T00:13:42.448Z,9.94
2019-05-23T00:16:12.153Z,9.90
2019-05-23T00:18:39.731Z,9.88
2019-05-23T00:21:08.712Z,9.89
2019-05-23T00:23:36.848Z,9.93
2019-05-23T00:26:04.115Z,9.85
2019-05-23T00:28:31.895Z,9.97
2019-05-23T00:31:07.060Z,9.91
2019-05-23T00:33:36.445Z,9.79
2019-05-23T00:36:04.523Z,9.89
2019-05-23T00:38:32.113Z,9.79
2019-05-23T00:41:00.414Z,9.61
2019-05-23T00:43:28.779Z,9.55
2019-05-23T00:45:57.198Z,9.54
2019-05-23T00:48:24.969Z,9.45
2019-05-23T00:50:53.631Z,9.45
2019-05-23T00:53:22.739Z,9.38
2019-05-23T00:55:51.542Z,9.39
2019-05-23T00:58:19.225Z,9.40
2019-05-23T01:00:50.049Z,9.43
2019-05-23T01:03:20.572Z,9.28
2019-05-23T01:05:47.953Z,9.33
2019-05-23T01:08:16.226Z,9.29
2019-05-23T01:10:44.134Z,9.04
2019-05-23T01:13:14.655Z,9.13
2019-05-23T01:15:42.869Z,9.15
2019-05-23T01:18:12.156Z,9.05
2019-05-23T01:21:06.906Z,9.01
2019-05-23T01:23:36.728Z,8.93
2019-05-23T01:26:04.688Z,9.02
2019-05-23T01:28:32.429Z,9.15
2019-05-23T01:31:04.514Z,9.07
2019-05-23T01:33:33.139Z,8.91
2019-05-23T01:36:01.103Z,8.84
2019-05-23T01:38:29.915Z,8.92
2019-05-23T01:40:57.595Z,8.89
2019-05-23T01:43:25.122Z,8.92
2019-05-23T01:45:52.868Z,8.87
2019-05-23T01:48:21.269Z,8.76
2019-05-23T01:50:49.455Z,8.75
2019-05-23T01:53:17.236Z,8.70
2019-05-23T01:55:46.108Z,8.76
2019-05-23T01:58:14.343Z,8.70
2019-05-23T02:00:42.526Z,8.65
2019-05-23T02:03:10.692Z,8.67
2019-05-23T02:05:38.242Z,8.64
2019-05-23T02:08:10.634Z,8.55
2019-05-23T02:10:38.316Z,8.46
2019-05-23T02:13:06.437Z,8.43
2019-05-23T02:15:34.377Z,8.50
2019-05-23T02:18:02.367Z,8.40
2019-05-23T02:20:31.220Z,8.38
2019-05-23T02:22:59.807Z,8.32
2019-05-23T02:25:29.093Z,8.29
2019-05-23T02:27:57.654Z,8.28
2019-05-23T02:30:34.800Z,8.36
2019-05-23T02:32:56.971Z,8.28
2019-05-23T02:35:25.152Z,8.32
2019-05-23T02:38:21.623Z,8.37
2019-05-23T02:41:20.657Z,8.30
2019-05-23T02:43:58.251Z,8.16
2019-05-23T02:46:31.289Z,8.15
2019-05-23T02:49:04.422Z,8.15
2019-05-23T02:51:36.415Z,8.12
2019-05-23T02:54:08.796Z,8.04
2019-05-23T02:56:40.720Z,7.98
2019-05-23T02:59:52.282Z,7.94
2019-05-23T03:02:53.695Z,7.92
2019-05-23T03:05:25.513Z,7.89
2019-05-23T03:07:55.590Z,7.77
2019-05-23T03:10:23.972Z,7.85
2019-05-23T03:12:52.430Z,8.07
2019-05-23T03:15:22.124Z,8.04
2019-05-23T03:17:55.046Z,7.86
2019-05-23T03:20:23.457Z,7.78
2019-05-23T03:22:57.554Z,7.77
2019-05-23T03:26:31.408Z,7.71
2019-05-23T03:28:59.945Z,7.71
2019-05-23T03:31:33.618Z,7.68
2019-05-23T03:34:01.829Z,7.69
2019-05-23T03:36:29.784Z,7.64
2019-05-23T03:38:57.279Z,7.67
2019-05-23T03:41:25.649Z,7.73
2019-05-23T03:43:54.377Z,7.73
2019-05-23T03:46:25.814Z,7.81
2019-05-23T03:48:53.643Z,7.82
2019-05-23T03:51:23.509Z,7.83
2019-05-23T03:53:51.425Z,7.85
2019-05-23T03:56:19.483Z,7.91
2019-05-23T03:58:47.882Z,7.95
2019-05-23T04:01:18.455Z,8.00
2019-05-23T04:03:47.354Z,8.07
2019-05-23T04:06:15.674Z,8.22
2019-05-23T04:08:43.383Z,8.32
2019-05-23T04:11:11.012Z,8.32
2019-05-23T04:13:38.586Z,8.43
2019-05-23T04:16:06.615Z,8.42
2019-05-23T04:18:34.836Z,8.55
2019-05-23T04:21:02.582Z,8.67
2019-05-23T04:23:30.083Z,8.69
2019-05-23T04:25:57.882Z,8.72
2019-05-23T04:28:26.377Z,8.92
2019-05-23T04:30:54.366Z,9.00
2019-05-23T04:33:22.203Z,9.09
2019-05-23T04:35:49.657Z,9.19
2019-05-23T04:38:17.242Z,9.23
2019-05-23T04:40:45.068Z,9.29
2019-05-23T04:43:12.573Z,9.33
2019-05-23T04:45:41.304Z,9.32
2019-05-23T04:48:08.976Z,9.39
2019-05-23T04:50:36.481Z,9.41
2019-05-23T04:53:06.403Z,9.50
2019-05-23T04:55:35.720Z,9.46
2019-05-23T04:58:05.056Z,9.48
2019-05-23T05:00:32.693Z,9.53
2019-05-23T05:03:00.510Z,9.65
2019-05-23T05:05:29.355Z,9.83
2019-05-23T05:07:56.682Z,9.82
2019-05-23T05:10:25.669Z,10.00
2019-05-23T05:12:53.199Z,10.20
2019-05-23T05:15:35.877Z,10.43
2019-05-23T05:18:05.429Z,10.68
2019-05-23T05:20:33.399Z,10.78
2019-05-23T05:23:01.097Z,11.00
2019-05-23T05:25:29.105Z,11.20
2019-05-23T05:27:57.204Z,11.39
2019-05-23T05:30:25.558Z,11.68
2019-05-23T05:32:53.000Z,11.81
2019-05-23T05:35:20.598Z,12.14
2019-05-23T05:37:48.097Z,12.28
2019-05-23T05:40:17.549Z,12.46
2019-05-23T05:42:45.548Z,12.56
2019-05-23T05:45:14.401Z,12.80
2019-05-23T05:47:42.367Z,12.91
2019-05-23T05:50:12.121Z,13.02
2019-05-23T05:52:40.265Z,13.18
2019-05-23T05:55:09.426Z,13.34
2019-05-23T05:57:42.302Z,13.47
2019-05-23T06:00:22.724Z,13.52
2019-05-23T06:03:03.725Z,13.58
2019-05-23T06:05:28.307Z,13.76
2019-05-23T06:07:55.626Z,13.87
2019-05-23T06:10:23.774Z,14.11
2019-05-23T06:12:51.214Z,14.21
2019-05-23T06:15:20.238Z,14.34
2019-05-23T06:17:48.105Z,14.57
2019-05-23T06:20:17.132Z,14.71
2019-05-23T06:22:45.484Z,15.01
2019-05-23T06:25:13.467Z,15.11
2019-05-23T06:27:41.627Z,15.43
2019-05-23T06:30:11.729Z,15.55
2019-05-23T06:32:39.492Z,15.72
2019-05-23T06:35:08.282Z,15.74
2019-05-23T06:37:36.382Z,15.94
2019-05-23T06:40:05.845Z,15.97
2019-05-23T06:42:33.431Z,15.98
2019-05-23T06:45:01.117Z,16.15
2019-05-23T06:47:29.797Z,16.11
2019-05-23T06:49:57.240Z,16.27
2019-05-23T06:52:25.020Z,16.42
2019-05-23T06:54:52.395Z,16.58
2019-05-23T06:57:19.975Z,16.52
2019-05-23T06:59:47.862Z,16.57
2019-05-23T07:02:15.659Z,16.80
2019-05-23T07:04:43.736Z,16.94
2019-05-23T07:07:11.515Z,16.98
2019-05-23T07:09:39.684Z,17.03
2019-05-23T07:12:07.855Z,17.04
2019-05-23T07:14:35.910Z,17.09
2019-05-23T07:17:03.895Z,17.14
2019-05-23T07:19:31.403Z,17.16
2019-05-23T07:22:00.423Z,17.08
2019-05-23T07:24:28.301Z,17.12
2019-05-23T07:26:56.412Z,17.13
2019-05-23T07:29:24.072Z,17.18
2019-05-23T07:31:52.234Z,17.23
2019-05-23T07:34:20.401Z,17.35
2019-05-23T07:36:48.614Z,17.34
2019-05-23T07:39:20.463Z,17.33
2019-05-23T07:41:48.404Z,17.39
2019-05-23T07:44:16.390Z,17.45
2019-05-23T07:46:44.577Z,17.55
2019-05-23T07:49:12.093Z,17.69
2019-05-23T07:51:39.428Z,17.77
2019-05-23T07:54:35.662Z,17.84
2019-05-23T07:57:06.433Z,17.94
2019-05-23T07:59:33.888Z,17.83
2019-05-23T08:02:15.993Z,17.77
2019-05-23T08:04:43.656Z,17.91
2019-05-23T08:07:13.227Z,18.03
2019-05-23T08:09:40.794Z,18.09
2019-05-23T08:12:08.644Z,18.15
2019-05-23T08:14:36.482Z,18.13
2019-05-23T08:17:04.399Z,18.13
2019-05-23T08:19:48.180Z,18.25
2019-05-23T08:22:01.988Z,18.38
2019-05-23T08:24:29.376Z,18.41
2019-05-23T08:26:56.680Z,18.61
2019-05-23T08:29:26.702Z,18.75
2019-05-23T08:31:54.310Z,18.86
2019-05-23T08:34:40.081Z,18.80
2019-05-23T08:36:51.952Z,18.80
2019-05-23T08:39:22.148Z,18.97
2019-05-23T08:41:50.046Z,18.79
2019-05-23T08:44:17.315Z,18.94
2019-05-23T08:46:46.287Z,19.12
2019-05-23T08:49:13.956Z,19.20
2019-05-23T08:51:41.325Z,19.31
2019-05-23T08:54:08.942Z,19.40
2019-05-23T08:56:37.010Z,19.49
2019-05-23T08:59:05.797Z,19.55
2019-05-23T09:01:33.691Z,19.68
2019-05-23T09:04:02.058Z,19.71
2019-05-23T09:06:30.040Z,19.68
2019-05-23T09:08:57.614Z,19.82
2019-05-23T09:11:25.296Z,19.90
2019-05-23T09:13:52.935Z,19.98
2019-05-23T09:16:20.408Z,19.97
2019-05-23T09:18:47.649Z,19.97
2019-05-23T09:21:15.132Z,20.18
2019-05-23T09:23:42.529Z,20.10
2019-05-23T09:26:09.848Z,20.31
2019-05-23T09:28:37.127Z,20.35
2019-05-23T09:31:05.537Z,20.42
2019-05-23T09:33:33.105Z,20.25
2019-05-23T09:36:01.089Z,20.44
2019-05-23T09:38:28.622Z,20.66
2019-05-23T09:40:57.371Z,20.66
2019-05-23T09:43:25.040Z,20.58
2019-05-23T09:45:52.596Z,20.61
2019-05-23T09:48:20.568Z,20.77
2019-05-23T09:50:47.909Z,20.90
2019-05-23T09:53:16.626Z,21.24
2019-05-23T09:55:44.058Z,21.34
2019-05-23T09:58:11.840Z,21.46
2019-05-23T10:00:39.600Z,21.50
2019-05-23T10:03:07.434Z,21.73
2019-05-23T10:05:42.923Z,21.80
2019-05-23T10:08:05.379Z,22.53
2019-05-23T10:10:33.042Z,23.13
2019-05-23T10:13:00.433Z,23.50
2019-05-23T10:15:38.503Z,23.81
2019-05-23T10:18:08.282Z,24.24
2019-05-23T10:20:35.782Z,24.71
2019-05-23T10:23:03.967Z,25.28
2019-05-23T10:25:31.478Z,26.12
2019-05-23T10:27:58.952Z,26.87
2019-05-23T10:30:26.633Z,27.62
2019-05-23T10:32:54.296Z,28.49
2019-05-23T10:35:22.574Z,28.91
2019-05-23T10:37:50.931Z,29.87
2019-05-23T10:40:19.674Z,30.41
2019-05-23T10:42:47.531Z,30.51
2019-05-23T10:45:15.297Z,30.97
2019-05-23T10:47:42.673Z,31.35
2019-05-23T10:50:10.775Z,31.72
2019-05-23T10:52:38.340Z,31.47
2019-05-23T10:55:06.423Z,30.73
2019-05-23T10:57:34.086Z,30.40
2019-05-23T11:00:02.142Z,30.45
2019-05-23T11:02:29.620Z,29.51
2019-05-23T11:04:57.781Z,28.72
2019-05-23T11:07:25.861Z,28.52
2019-05-23T11:09:54.003Z,29.12
2019-05-23T11:12:21.778Z,29.46
2019-05-23T11:14:49.153Z,29.67
2019-05-23T11:17:17.013Z,29.92
2019-05-23T11:19:44.469Z,30.51
2019-05-23T11:22:12.286Z,30.96
2019-05-23T11:24:40.160Z,31.60
2019-05-23T11:27:07.408Z,31.64
2019-05-23T11:29:43.676Z,31.79
2019-05-23T11:32:12.289Z,32.01
2019-05-23T11:34:39.750Z,32.16
2019-05-23T11:37:07.120Z,32.53
2019-05-23T11:39:42.150Z,32.59
2019-05-23T11:42:05.113Z,32.75
2019-05-23T11:44:33.071Z,32.82
2019-05-23T11:47:12.465Z,32.73
2019-05-23T11:49:40.275Z,33.19
2019-05-23T11:52:08.192Z,33.44
2019-05-23T11:54:35.672Z,33.66
2019-05-23T11:57:04.408Z,33.46
2019-05-23T11:59:31.695Z,33.08
2019-05-23T12:02:17.659Z,33.40
2019-05-23T12:04:45.066Z,33.36
2019-05-23T12:07:16.450Z,33.58
2019-05-23T12:09:44.650Z,33.52
2019-05-23T12:12:12.111Z,33.24
2019-05-23T12:14:41.074Z,32.94
2019-05-23T12:17:08.466Z,33.01
2019-05-23T12:19:36.034Z,33.20
2019-05-23T12:22:04.690Z,33.70
2019-05-23T12:24:35.480Z,33.70
2019-05-23T12:27:02.092Z,33.70
2019-05-23T12:29:30.748Z,33.79
2019-05-23T12:31:58.466Z,33.59
2019-05-23T12:34:25.720Z,33.92
2019-05-23T12:36:53.227Z,34.33
2019-05-23T12:39:20.829Z,34.16
2019-05-23T12:41:52.736Z,34.01
2019-05-23T12:44:20.602Z,33.89
2019-05-23T12:46:48.500Z,33.64
2019-05-23T12:49:33.428Z,33.62
2019-05-23T12:52:07.359Z,33.45
2019-05-23T12:54:35.093Z,32.96
2019-05-23T12:57:03.681Z,32.54
2019-05-23T12:59:31.153Z,32.12
2019-05-23T13:02:00.846Z,31.68
2019-05-23T13:04:28.886Z,31.64
2019-05-23T13:06:56.622Z,31.50
2019-05-23T13:09:24.204Z,31.23
2019-05-23T13:11:52.036Z,30.70
2019-05-23T13:14:19.224Z,30.38
2019-05-23T13:16:46.932Z,30.31
2019-05-23T13:19:14.438Z,30.16
2019-05-23T13:21:41.777Z,29.89
2019-05-23T13:24:09.335Z,29.67
2019-05-23T13:26:36.606Z,29.67
2019-05-23T13:29:04.116Z,29.81
2019-05-23T13:31:31.574Z,30.03
2019-05-23T13:33:58.954Z,29.63
2019-05-23T13:36:26.314Z,29.75
2019-05-23T13:38:53.874Z,29.73
2019-05-23T13:41:23.356Z,29.78
2019-05-23T13:43:58.475Z,29.70
2019-05-23T13:46:25.718Z,29.57
2019-05-23T13:48:53.202Z,29.38
2019-05-23T13:51:20.593Z,29.13
2019-05-23T13:53:48.089Z,29.18
2019-05-23T13:56:16.373Z,28.71
2019-05-23T13:58:44.628Z,29.01
2019-05-23T14:01:12.497Z,29.02
2019-05-23T14:03:40.974Z,29.21
2019-05-23T14:06:10.805Z,29.17
2019-05-23T14:08:38.213Z,29.17
2019-05-23T14:11:06.946Z,28.84
2019-05-23T14:13:34.533Z,28.78
2019-05-23T14:16:04.669Z,28.40
2019-05-23T14:18:32.752Z,28.30
2019-05-23T14:21:00.278Z,28.18
2019-05-23T14:23:30.293Z,28.26
2019-05-23T14:25:59.066Z,28.10
2019-05-23T14:28:31.374Z,28.14
2019-05-23T14:31:07.144Z,27.97
2019-05-23T14:33:42.492Z,27.91
2019-05-23T14:36:18.833Z,27.93
2019-05-23T14:38:47.097Z,27.83
2019-05-23T14:41:15.200Z,27.65
2019-05-23T14:43:44.106Z,27.57
2019-05-23T14:46:14.037Z,27.47
2019-05-23T14:48:48.613Z,27.56
2019-05-23T14:51:24.287Z,27.63
2019-05-23T14:53:55.539Z,27.39
2019-05-23T14:56:23.858Z,27.40
2019-05-23T14:58:52.185Z,27.29
2019-05-23T15:01:23.339Z,27.31
2019-05-23T15:03:51.398Z,27.40
2019-05-23T15:06:19.602Z,27.43
2019-05-23T15:08:51.343Z,27.23
2019-05-23T15:11:16.219Z,27.34
2019-05-23T15:13:43.748Z,27.26
2019-05-23T15:16:11.951Z,27.22
2019-05-23T15:18:40.660Z,27.25
2019-05-23T15:21:13.391Z,27.16
2019-05-23T15:23:47.592Z,27.14
2019-05-23T15:26:23.459Z,27.09
2019-05-23T15:28:48.952Z,27.09
2019-05-23T15:31:16.736Z,27.12
2019-05-23T15:33:44.353Z,27.01
2019-05-23T15:36:11.757Z,26.87
2019-05-23T15:38:39.455Z,26.87
2019-05-23T15:41:08.649Z,26.82
2019-05-23T15:43:36.292Z,26.82
2019-05-23T15:46:10.961Z,26.69
2019-05-23T15:48:38.564Z,26.61
2019-05-23T15:51:06.501Z,26.56
2019-05-23T15:53:41.183Z,26.50
2019-05-23T15:56:27.655Z,26.36
2019-05-23T15:59:01.527Z,26.34
2019-05-23T16:01:54.358Z,26.44
2019-05-23T16:04:21.712Z,26.38
2019-05-23T16:06:49.485Z,25.92
2019-05-23T16:09:29.595Z,25.89
2019-05-23T16:11:51.540Z,25.98
2019-05-23T16:14:25.126Z,25.85
2019-05-23T16:16:56.441Z,25.84
2019-05-23T16:19:22.967Z,25.70
2019-05-23T16:21:50.436Z,25.62
2019-05-23T16:24:18.160Z,25.59
2019-05-23T16:26:47.143Z,25.52
2019-05-23T16:29:15.657Z,25.39
2019-05-23T16:31:43.635Z,25.23
2019-05-23T16:34:11.101Z,25.19
2019-05-23T16:36:38.697Z,25.07
2019-05-23T16:39:07.107Z,25.01
2019-05-23T16:41:34.628Z,25.01
2019-05-23T16:44:02.260Z,24.90
2019-05-23T16:46:29.563Z,24.87
2019-05-23T16:48:57.458Z,24.78
2019-05-23T16:51:24.806Z,24.65
2019-05-23T16:53:52.286Z,24.61
2019-05-23T16:56:28.680Z,24.55
2019-05-23T16:59:08.052Z,24.55
2019-05-23T17:01:59.184Z,24.58
2019-05-23T17:04:35.135Z,24.50
2019-05-23T17:07:29.159Z,24.40
2019-05-23T17:10:25.278Z,24.43
2019-05-23T17:13:15.350Z,24.23
2019-05-23T17:16:17.663Z,24.42
2019-05-23T17:19:03.826Z,24.46
2019-05-23T17:21:39.329Z,24.51
2019-05-23T17:24:27.081Z,24.52
2019-05-23T17:26:59.692Z,24.38
2019-05-23T17:29:45.060Z,24.33
2019-05-23T17:32:16.550Z,24.18
2019-05-23T17:34:43.825Z,24.09
2019-05-23T17:37:12.612Z,24.07
2019-05-23T17:39:43.066Z,24.07
2019-05-23T17:42:10.753Z,24.15
2019-05-23T17:44:38.461Z,23.93
2019-05-23T17:47:05.911Z,23.80
2019-05-23T17:49:33.805Z,23.89
2019-05-23T17:52:01.317Z,23.81
2019-05-23T17:54:30.062Z,23.76
2019-05-23T17:56:57.544Z,23.65
2019-05-23T17:59:26.114Z,23.55
2019-05-23T18:01:53.974Z,23.48
2019-05-23T18:04:22.142Z,23.43
2019-05-23T18:06:49.944Z,23.33
2019-05-23T18:09:17.811Z,23.23
2019-05-23T18:11:47.447Z,23.16
2019-05-23T18:14:17.611Z,23.17
2019-05-23T18:16:46.993Z,23.11
2019-05-23T18:19:14.827Z,22.84
2019-05-23T18:21:42.765Z,22.69
2019-05-23T18:24:11.041Z,22.38
2019-05-23T18:26:38.815Z,22.24
2019-05-23T18:29:06.592Z,22.30
2019-05-23T18:31:35.920Z,22.19
2019-05-23T18:34:04.571Z,22.20
2019-05-23T18:36:32.137Z,22.12
2019-05-23T18:38:59.680Z,22.10
2019-05-23T18:41:29.904Z,21.88
2019-05-23T18:43:58.628Z,21.83
2019-05-23T18:46:31.963Z,21.76
2019-05-23T18:49:00.584Z,21.65
2019-05-23T18:51:28.198Z,21.51
2019-05-23T18:54:04.398Z,21.45
2019-05-23T18:56:32.520Z,21.41
2019-05-23T18:59:00.606Z,21.34
2019-05-23T19:01:29.008Z,21.18
2019-05-23T19:03:56.942Z,21.01
2019-05-23T19:06:24.454Z,21.05
2019-05-23T19:08:52.135Z,20.90
2019-05-23T19:11:21.791Z,20.69
2019-05-23T19:13:49.843Z,20.65
2019-05-23T19:16:17.703Z,20.46
2019-05-23T19:18:45.666Z,20.38
2019-05-23T19:21:19.315Z,20.35
2019-05-23T19:23:46.917Z,20.14
2019-05-23T19:26:14.894Z,20.05
2019-05-23T19:28:43.922Z,19.96
2019-05-23T19:31:11.738Z,19.93
2019-05-23T19:33:39.814Z,19.85
2019-05-23T19:36:09.628Z,19.78
2019-05-23T19:38:38.373Z,19.62
2019-05-23T19:41:06.548Z,19.47
2019-05-23T19:43:38.048Z,19.40
2019-05-23T19:46:05.442Z,19.22
2019-05-23T19:48:33.293Z,19.20
2019-05-23T19:51:00.931Z,19.13
2019-05-23T19:53:29.092Z,18.97
2019-05-23T19:55:56.596Z,18.82
2019-05-23T19:58:24.167Z,18.67
2019-05-23T20:00:51.778Z,18.42
2019-05-23T20:03:19.566Z,18.32
2019-05-23T20:05:48.339Z,18.11
2019-05-23T20:08:16.316Z,18.26
2019-05-23T20:10:44.698Z,18.36
2019-05-23T20:13:12.293Z,18.26
2019-05-23T20:15:39.769Z,18.20
2019-05-23T20:18:10.420Z,17.92
2019-05-23T20:20:39.184Z,17.81
2019-05-23T20:23:07.667Z,17.83
2019-05-23T20:25:37.207Z,17.76
2019-05-23T20:28:06.111Z,17.68
2019-05-23T20:30:52.680Z,17.67
2019-05-23T20:33:20.088Z,17.63
2019-05-23T20:35:48.119Z,17.71
2019-05-23T20:38:15.581Z,17.59
2019-05-23T20:40:42.884Z,17.35
2019-05-23T20:43:10.479Z,16.96
2019-05-23T20:45:38.749Z,16.77
2019-05-23T20:48:06.725Z,16.74
2019-05-23T20:50:34.505Z,16.55
2019-05-23T20:53:02.036Z,16.37
2019-05-23T20:55:29.423Z,16.42
2019-05-23T20:57:56.831Z,16.29
2019-05-23T21:00:38.267Z,16.54
2019-05-23T21:03:05.978Z,16.54
2019-05-23T21:05:33.854Z,16.58
2019-05-23T21:08:01.983Z,16.55
2019-05-23T21:10:47.025Z,16.56
2019-05-23T21:13:14.829Z,16.50
2019-05-23T21:15:42.518Z,16.49
2019-05-23T21:18:09.993Z,16.33
2019-05-23T21:20:37.247Z,16.30
2019-05-23T21:23:04.825Z,16.26
2019-05-23T21:25:33.348Z,16.10
2019-05-23T21:28:00.909Z,16.20
2019-05-23T21:30:28.450Z,16.17
2019-05-23T21:32:55.775Z,16.03
2019-05-23T21:35:23.243Z,15.79
2019-05-23T21:37:50.623Z,15.61
2019-05-23T21:40:41.848Z,15.47
2019-05-23T21:43:09.262Z,15.30
2019-05-23T21:45:37.044Z,15.24
2019-05-23T21:48:05.035Z,15.18
2019-05-23T21:50:32.806Z,15.28
2019-05-23T21:53:00.093Z,15.35
2019-05-23T21:55:36.107Z,15.35
2019-05-23T21:58:04.765Z,15.32
2019-05-23T22:01:27.292Z,15.28
2019-05-23T22:04:05.058Z,15.28
2019-05-23T22:06:33.709Z,15.06
2019-05-23T22:09:01.487Z,15.08
2019-05-23T22:11:28.950Z,15.08
2019-05-23T22:13:56.431Z,15.12
2019-05-23T22:16:24.077Z,15.03
2019-05-23T22:18:51.761Z,15.12
2019-05-23T22:21:19.334Z,14.91
2019-05-23T22:23:46.651Z,15.01
2019-05-23T22:26:14.200Z,15.01
2019-05-23T22:28:42.020Z,14.79
2019-05-23T22:31:12.380Z,14.78
2019-05-23T22:33:43.335Z,14.82
2019-05-23T22:36:11.310Z,14.77
2019-05-23T22:38:38.655Z,14.75
2019-05-23T22:41:06.047Z,14.73
2019-05-23T22:43:33.418Z,14.68
2019-05-23T22:46:00.723Z,14.53
2019-05-23T22:48:28.105Z,14.46
2019-05-23T22:50:55.496Z,14.40
2019-05-23T22:53:22.868Z,14.25
2019-05-23T22:55:50.458Z,14.24
2019-05-23T22:58:17.609Z,14.21
2019-05-23T23:00:46.378Z,14.19
2019-05-23T23:03:13.631Z,14.16
2019-05-23T23:05:41.230Z,14.20
2019-05-23T23:08:08.514Z,14.08
2019-05-23T23:10:36.009Z,14.07
2019-05-23T23:13:03.605Z,14.04
2019-05-23T23:15:31.731Z,13.98
2019-05-23T23:17:59.771Z,13.92
2019-05-23T23:20:29.487Z,13.87
2019-05-23T23:22:57.021Z,13.83
2019-05-23T23:25:24.462Z,13.89
2019-05-23T23:27:52.160Z,13.90
2019-05-23T23:30:22.934Z,13.81
2019-05-23T23:32:50.181Z,13.86
2019-05-23T23:35:19.277Z,13.80
2019-05-23T23:37:46.621Z,13.62
2019-05-23T23:40:14.056Z,13.56
2019-05-23T23:42:41.329Z,13.45
2019-05-23T23:45:27.449Z,13.41
2019-05-23T23:48:12.838Z,13.34
2019-05-23T23:50:58.710Z,13.21
2019-05-23T23:53:44.301Z,13.15
2019-05-23T23:56:34.225Z,13.09
2019-05-23T23:59:01.555Z,12.98
